Time;durP1;ratioP1;P1;durP2;ratioP2;P2;SDS_P1;SDS_P2;PMS_P1;PMS_P2;Temp;Humidity;BMP_temperature;BMP_pressure;BME280_temperature;BME280_humidity;BME280_pressure;Samples;Min_cycle;Max_cycle;Signal;HPM_P1;HPM_P2
2022/05/28 00:01:14;;;;;;;;;;;18.30;58.70;;;;;;5074440;28;19928;-70
2022/05/28 00:03:41;;;;;;;;;;;18.40;58.60;;;;;;5079301;28;19929;-69
2022/05/28 00:06:12;;;;;;;;;;;18.40;58.60;;;;;;5078800;28;19977;-71
2022/05/28 00:08:38;;;;;;;;;;;18.40;58.60;;;;;;5074742;28;19985;-72
2022/05/28 00:11:11;;;;;;;;;;;18.40;58.60;;;;;;5077656;28;19936;-70
2022/05/28 00:13:37;;;;;;;;;;;18.40;58.60;;;;;;5080533;28;19928;-72
2022/05/28 00:16:04;;;;;;;;;;;18.40;58.50;;;;;;5072517;28;19935;-71
2022/05/28 00:18:31;;;;;;;;;;;18.40;58.30;;;;;;5075745;28;20693;-69
2022/05/28 00:20:58;;;;;;;;;;;18.40;58.10;;;;;;5083808;28;20372;-72
2022/05/28 00:23:24;;;;;;;;;;;18.40;58.10;;;;;;5079772;28;20010;-70
2022/05/28 00:25:51;;;;;;;;;;;18.40;58.00;;;;;;5086305;28;19935;-70
2022/05/28 00:28:21;;;;;;;;;;;18.40;58.00;;;;;;5080445;28;19928;-69
2022/05/28 00:30:47;;;;;;;;;;;18.40;58.10;;;;;;5075372;28;19933;-71
2022/05/28 00:33:14;;;;;;;;;;;18.40;58.30;;;;;;5076603;28;20371;-69
2022/05/28 00:35:41;;;;;;;;;;;18.40;58.40;;;;;;5076731;28;19959;-70
2022/05/28 00:38:07;;;;;;;;;;;18.40;58.50;;;;;;5072878;28;20654;-70
2022/05/28 00:40:34;;;;;;;;;;;18.40;58.40;;;;;;5074646;28;19935;-70
2022/05/28 00:43:01;;;;;;;;;;;18.30;58.40;;;;;;5068381;28;19933;-71
2022/05/28 00:45:31;;;;;;;;;;;18.30;58.50;;;;;;5071276;28;19931;-69
2022/05/28 00:47:59;;;;;;;;;;;18.30;58.50;;;;;;5075690;28;19932;-69
2022/05/28 00:50:26;;;;;;;;;;;18.30;58.60;;;;;;5072570;28;19935;-69
2022/05/28 00:52:53;;;;;;;;;;;18.30;58.60;;;;;;5072365;28;19928;-69
2022/05/28 00:55:19;;;;;;;;;;;18.30;58.60;;;;;;5073577;28;19935;-70
2022/05/28 00:57:46;;;;;;;;;;;18.30;58.60;;;;;;5072721;28;20028;-73
2022/05/28 01:00:17;;;;;;;;;;;18.20;58.60;;;;;;5071898;28;19928;-70
2022/05/28 01:02:48;;;;;;;;;;;18.20;58.60;;;;;;5074580;28;19989;-70
2022/05/28 01:05:20;;;;;;;;;;;18.20;58.60;;;;;;5078242;28;19932;-71
2022/05/28 01:07:49;;;;;;;;;;;18.20;58.50;;;;;;5075965;28;20663;-70
2022/05/28 01:10:21;;;;;;;;;;;18.20;58.60;;;;;;5069172;28;19928;-72
2022/05/28 01:12:52;;;;;;;;;;;18.20;58.50;;;;;;5074005;28;19928;-69
2022/05/28 01:15:20;;;;;;;;;;;18.10;58.30;;;;;;5068353;28;20546;-69
2022/05/28 01:17:50;;;;;;;;;;;18.10;58.30;;;;;;5078497;28;19932;-71
2022/05/28 01:20:19;;;;;;;;;;;18.10;58.30;;;;;;5077450;28;19936;-70
2022/05/28 01:22:58;;;;;;;;;;;18.00;58.00;;;;;;5072054;28;20579;-71
2022/05/28 01:25:27;;;;;;;;;;;18.00;57.90;;;;;;5073530;28;19927;-71
2022/05/28 01:27:58;;;;;;;;;;;18.00;57.90;;;;;;5072434;28;20395;-70
2022/05/28 01:30:25;;;;;;;;;;;17.90;57.70;;;;;;5074253;28;19938;-69
2022/05/28 01:32:54;;;;;;;;;;;17.90;57.80;;;;;;5078274;28;19928;-71
2022/05/28 01:35:22;;;;;;;;;;;17.90;57.70;;;;;;5069618;28;19932;-69
2022/05/28 01:37:50;;;;;;;;;;;17.90;57.70;;;;;;5069963;28;19928;-70
2022/05/28 01:40:18;;;;;;;;;;;17.80;57.70;;;;;;5071940;28;19928;-70
2022/05/28 01:42:45;;;;;;;;;;;17.80;57.70;;;;;;5069075;28;19928;-70
2022/05/28 01:45:14;;;;;;;;;;;17.80;57.80;;;;;;5075318;28;19928;-70
2022/05/28 01:47:43;;;;;;;;;;;17.70;57.90;;;;;;5074731;28;19931;-72
2022/05/28 01:50:11;;;;;;;;;;;17.70;57.80;;;;;;5077907;28;19928;-73
2022/05/28 01:52:39;;;;;;;;;;;17.70;57.70;;;;;;5082031;28;20021;-70
2022/05/28 01:55:06;;;;;;;;;;;17.70;57.90;;;;;;5076404;28;19939;-69
2022/05/28 01:57:33;;;;;;;;;;;17.70;58.00;;;;;;5070661;28;20440;-71
2022/05/28 02:00:00;;;;;;;;;;;17.70;58.20;;;;;;5069995;28;19939;-71
2022/05/28 02:02:28;;;;;;;;;;;17.60;58.20;;;;;;5077221;28;19933;-70
2022/05/28 02:04:55;;;;;;;;;;;17.60;58.30;;;;;;5073731;28;19928;-70
2022/05/28 02:07:22;;;;;;;;;;;17.60;58.40;;;;;;5070817;28;20392;-70
2022/05/28 02:09:50;;;;;;;;;;;17.60;58.50;;;;;;5071275;28;19932;-70
2022/05/28 02:12:20;;;;;;;;;;;17.50;58.60;;;;;;5071817;28;19936;-71
2022/05/28 02:14:52;;;;;;;;;;;17.50;58.70;;;;;;5069824;28;19931;-72
2022/05/28 02:17:21;;;;;;;;;;;17.50;58.80;;;;;;5075011;28;19928;-69
2022/05/28 02:19:54;;;;;;;;;;;17.40;58.80;;;;;;5073191;28;20020;-70
2022/05/28 02:22:24;;;;;;;;;;;17.50;58.90;;;;;;5061407;28;19939;-72
2022/05/28 02:24:54;;;;;;;;;;;17.40;59.00;;;;;;5073484;28;19997;-71
2022/05/28 02:27:23;;;;;;;;;;;17.40;59.20;;;;;;5071497;28;19928;-69
2022/05/28 02:29:50;;;;;;;;;;;17.40;59.10;;;;;;5072155;28;20056;-70
2022/05/28 02:32:18;;;;;;;;;;;17.30;59.20;;;;;;5073820;28;20438;-71
2022/05/28 02:34:45;;;;;;;;;;;17.30;59.30;;;;;;5076246;28;19928;-72
2022/05/28 02:37:14;;;;;;;;;;;17.20;59.40;;;;;;5074023;28;20027;-73
2022/05/28 02:39:41;;;;;;;;;;;17.20;59.50;;;;;;5070621;28;19939;-70
2022/05/28 02:42:08;;;;;;;;;;;17.20;60.20;;;;;;5069728;28;19937;-71
2022/05/28 02:44:35;;;;;;;;;;;17.20;59.70;;;;;;5071547;28;19936;-70
2022/05/28 02:47:01;;;;;;;;;;;17.10;59.70;;;;;;5072486;28;19932;-70
2022/05/28 02:49:28;;;;;;;;;;;17.10;59.90;;;;;;5082086;28;19928;-70
2022/05/28 02:51:54;;;;;;;;;;;17.10;60.00;;;;;;5069578;28;19932;-70
2022/05/28 02:54:23;;;;;;;;;;;17.00;60.10;;;;;;5072722;28;19936;-70
2022/05/28 02:56:49;;;;;;;;;;;17.00;60.20;;;;;;5072488;28;19984;-69
2022/05/28 02:59:16;;;;;;;;;;;17.00;60.30;;;;;;5070135;28;20417;-73
2022/05/28 03:01:42;;;;;;;;;;;16.90;60.40;;;;;;5072859;28;19932;-72
2022/05/28 03:04:09;;;;;;;;;;;16.90;60.50;;;;;;5078295;28;19928;-70
2022/05/28 03:06:37;;;;;;;;;;;16.90;60.60;;;;;;5078796;28;19936;-69
2022/05/28 03:09:04;;;;;;;;;;;16.80;60.80;;;;;;5071823;28;19940;-70
2022/05/28 03:11:32;;;;;;;;;;;16.80;61.10;;;;;;5074109;28;19932;-70
2022/05/28 03:13:59;;;;;;;;;;;16.70;60.90;;;;;;5072352;28;19936;-70
2022/05/28 03:16:26;;;;;;;;;;;16.70;61.10;;;;;;5074173;28;19931;-70
2022/05/28 03:18:52;;;;;;;;;;;16.70;61.30;;;;;;5071445;28;19928;-70
2022/05/28 03:21:19;;;;;;;;;;;16.60;61.30;;;;;;5074569;28;19935;-69
2022/05/28 03:23:47;;;;;;;;;;;16.70;61.40;;;;;;5071931;28;19935;-73
2022/05/28 03:26:15;;;;;;;;;;;16.60;61.40;;;;;;5074105;28;19928;-72
2022/05/28 03:28:43;;;;;;;;;;;16.60;61.50;;;;;;5070694;28;20376;-69
2022/05/28 03:31:10;;;;;;;;;;;16.50;61.50;;;;;;5071521;28;19935;-72
2022/05/28 03:33:36;;;;;;;;;;;16.50;61.60;;;;;;5074388;28;19928;-69
2022/05/28 03:36:03;;;;;;;;;;;16.40;61.70;;;;;;5069922;28;19929;-70
2022/05/28 03:38:30;;;;;;;;;;;16.40;61.80;;;;;;5074165;28;20388;-70
2022/05/28 03:40:58;;;;;;;;;;;16.40;61.90;;;;;;5074057;28;19928;-69
2022/05/28 03:43:25;;;;;;;;;;;16.40;62.00;;;;;;5064465;28;19928;-70
2022/05/28 03:45:53;;;;;;;;;;;16.30;62.10;;;;;;5070823;28;19948;-70
2022/05/28 03:48:20;;;;;;;;;;;16.30;62.20;;;;;;5071906;28;19935;-71
2022/05/28 03:50:46;;;;;;;;;;;16.20;62.30;;;;;;5071919;28;19973;-72
2022/05/28 03:53:13;;;;;;;;;;;16.20;62.30;;;;;;5065191;28;20650;-70
2022/05/28 03:55:40;;;;;;;;;;;16.20;62.40;;;;;;5073514;28;19971;-73
2022/05/28 03:58:07;;;;;;;;;;;16.20;62.50;;;;;;5072488;28;19929;-69
2022/05/28 04:00:34;;;;;;;;;;;16.10;62.50;;;;;;5067056;28;20304;-71
2022/05/28 04:03:02;;;;;;;;;;;16.10;62.70;;;;;;5069519;28;19935;-70
2022/05/28 04:05:28;;;;;;;;;;;16.00;63.50;;;;;;5071315;28;19931;-69
2022/05/28 04:07:55;;;;;;;;;;;16.00;62.80;;;;;;5068413;28;19928;-69
2022/05/28 04:10:22;;;;;;;;;;;16.00;62.90;;;;;;5076246;28;20414;-72
2022/05/28 04:12:49;;;;;;;;;;;15.90;63.10;;;;;;5082503;28;20040;-69
2022/05/28 04:15:16;;;;;;;;;;;15.90;63.30;;;;;;5069824;28;19940;-71
2022/05/28 04:17:42;;;;;;;;;;;15.80;63.20;;;;;;5073423;28;19928;-71
2022/05/28 04:20:11;;;;;;;;;;;15.80;63.20;;;;;;5072394;28;19932;-72
2022/05/28 04:22:38;;;;;;;;;;;15.80;63.20;;;;;;5067966;28;19928;-70
2022/05/28 04:25:05;;;;;;;;;;;15.80;63.40;;;;;;5070078;28;19939;-70
2022/05/28 04:27:31;;;;;;;;;;;15.70;63.50;;;;;;5069256;28;19981;-71
2022/05/28 04:29:59;;;;;;;;;;;15.70;63.70;;;;;;5071430;28;19932;-72
2022/05/28 04:32:26;;;;;;;;;;;15.70;63.80;;;;;;5074192;28;19950;-70
2022/05/28 04:34:52;;;;;;;;;;;15.60;63.70;;;;;;5070946;28;19935;-72
2022/05/28 04:37:20;;;;;;;;;;;15.60;63.80;;;;;;5075249;28;19928;-71
2022/05/28 04:39:47;;;;;;;;;;;15.60;63.90;;;;;;5075916;28;19932;-70
2022/05/28 04:42:13;;;;;;;;;;;15.60;64.10;;;;;;5074585;28;19935;-73
2022/05/28 04:44:40;;;;;;;;;;;15.60;64.20;;;;;;5069975;28;19929;-70
2022/05/28 04:47:07;;;;;;;;;;;15.50;64.10;;;;;;5075064;28;19932;-71
2022/05/28 04:49:34;;;;;;;;;;;15.50;64.20;;;;;;5076821;28;19928;-72
2022/05/28 04:52:00;;;;;;;;;;;15.50;64.10;;;;;;5078379;28;19924;-70
2022/05/28 04:54:28;;;;;;;;;;;15.40;64.20;;;;;;5075639;28;19932;-70
2022/05/28 04:56:54;;;;;;;;;;;15.40;64.30;;;;;;5072060;28;19934;-69
2022/05/28 04:59:21;;;;;;;;;;;15.40;64.30;;;;;;5070733;28;19951;-71
2022/05/28 05:01:48;;;;;;;;;;;15.40;64.50;;;;;;5073599;28;19932;-69
2022/05/28 05:04:14;;;;;;;;;;;15.40;64.40;;;;;;5079086;28;19928;-73
2022/05/28 05:06:41;;;;;;;;;;;15.40;64.40;;;;;;5077915;28;20193;-70
2022/05/28 05:09:07;;;;;;;;;;;15.40;64.50;;;;;;5076252;28;19939;-69
2022/05/28 05:11:35;;;;;;;;;;;15.30;64.40;;;;;;5076427;28;19928;-72
2022/05/28 05:14:02;;;;;;;;;;;15.30;64.50;;;;;;5077088;28;19928;-71
2022/05/28 05:16:28;;;;;;;;;;;15.30;64.40;;;;;;5072248;28;19936;-71
2022/05/28 05:18:55;;;;;;;;;;;15.30;64.40;;;;;;5073596;28;19935;-69
2022/05/28 05:21:21;;;;;;;;;;;15.30;64.50;;;;;;5075302;28;19935;-69
2022/05/28 05:23:48;;;;;;;;;;;15.20;64.50;;;;;;5078376;28;19987;-69
2022/05/28 05:26:17;;;;;;;;;;;15.20;64.40;;;;;;5078199;28;20407;-72
2022/05/28 05:28:45;;;;;;;;;;;15.20;64.50;;;;;;5080237;28;19928;-72
2022/05/28 05:31:12;;;;;;;;;;;15.20;64.50;;;;;;5075809;28;19931;-72
2022/05/28 05:33:38;;;;;;;;;;;15.20;64.40;;;;;;5073891;28;19942;-71
2022/05/28 05:36:05;;;;;;;;;;;15.20;64.30;;;;;;5078980;28;19928;-71
2022/05/28 05:38:31;;;;;;;;;;;15.10;64.30;;;;;;5077775;28;20300;-71
2022/05/28 05:40:58;;;;;;;;;;;15.20;64.20;;;;;;5074638;28;19935;-71
2022/05/28 05:43:24;;;;;;;;;;;15.20;64.20;;;;;;5072657;28;20439;-71
2022/05/28 05:45:53;;;;;;;;;;;15.20;64.10;;;;;;5072793;28;19939;-72
2022/05/28 05:48:20;;;;;;;;;;;15.10;63.90;;;;;;5075605;28;20611;-70
2022/05/28 05:50:47;;;;;;;;;;;15.10;63.80;;;;;;5073784;28;19928;-73
2022/05/28 05:53:14;;;;;;;;;;;15.00;63.70;;;;;;5072840;28;20033;-71
2022/05/28 05:55:40;;;;;;;;;;;15.10;63.60;;;;;;5066429;28;19932;-72
2022/05/28 05:58:07;;;;;;;;;;;15.10;63.60;;;;;;5073095;28;20404;-71
2022/05/28 06:00:33;;;;;;;;;;;15.10;63.50;;;;;;5070412;28;19932;-70
2022/05/28 06:03:01;;;;;;;;;;;15.10;65.60;;;;;;5069477;28;19933;-71
2022/05/28 06:05:28;;;;;;;;;;;15.10;63.10;;;;;;5073950;28;19924;-71
2022/05/28 06:07:54;;;;;;;;;;;15.10;63.70;;;;;;5072461;28;19955;-70
2022/05/28 06:10:21;;;;;;;;;;;15.10;63.70;;;;;;5075259;28;19947;-71
2022/05/28 06:12:47;;;;;;;;;;;15.10;63.50;;;;;;5074953;28;19936;-70
2022/05/28 06:15:14;;;;;;;;;;;15.10;63.50;;;;;;5071068;28;20306;-70
2022/05/28 06:17:41;;;;;;;;;;;15.10;63.30;;;;;;5070033;28;20126;-71
2022/05/28 06:20:10;;;;;;;;;;;15.10;63.20;;;;;;5075952;28;20018;-71
2022/05/28 06:22:37;;;;;;;;;;;15.10;63.00;;;;;;5075703;28;20411;-70
2022/05/28 06:25:04;;;;;;;;;;;15.10;62.90;;;;;;5077360;28;19928;-73
2022/05/28 06:27:32;;;;;;;;;;;15.10;63.10;;;;;;5079813;28;19935;-71
2022/05/28 06:29:58;;;;;;;;;;;15.10;62.70;;;;;;5069716;28;19929;-70
2022/05/28 06:32:25;;;;;;;;;;;15.10;62.70;;;;;;5072567;28;19939;-70
2022/05/28 06:34:52;;;;;;;;;;;15.10;62.60;;;;;;5075260;28;19935;-71
2022/05/28 06:37:19;;;;;;;;;;;15.20;62.70;;;;;;5067000;28;19928;-72
2022/05/28 06:39:46;;;;;;;;;;;15.20;62.70;;;;;;5072159;28;19981;-70
2022/05/28 06:42:12;;;;;;;;;;;15.10;62.70;;;;;;5070467;28;19943;-66
2022/05/28 06:44:39;;;;;;;;;;;15.20;62.60;;;;;;5070934;28;19928;-68
2022/05/28 06:47:06;;;;;;;;;;;15.10;62.50;;;;;;5073277;28;19933;-72
2022/05/28 06:49:32;;;;;;;;;;;15.20;62.50;;;;;;5076215;28;19935;-69
2022/05/28 06:51:59;;;;;;;;;;;15.20;62.60;;;;;;5074676;28;20391;-68
2022/05/28 06:54:27;;;;;;;;;;;15.20;62.50;;;;;;5072032;28;19936;-73
2022/05/28 06:56:54;;;;;;;;;;;15.20;62.40;;;;;;5065423;28;19932;-74
2022/05/28 06:59:20;;;;;;;;;;;15.20;62.40;;;;;;5066826;28;19932;-79
2022/05/28 07:01:47;;;;;;;;;;;15.20;62.30;;;;;;5074655;28;19928;-75
2022/05/28 07:04:14;;;;;;;;;;;15.30;62.20;;;;;;5072649;28;19935;-73
2022/05/28 07:06:40;;;;;;;;;;;15.20;62.20;;;;;;5074200;28;19939;-76
2022/05/28 07:09:07;;;;;;;;;;;15.30;62.10;;;;;;5073236;28;19928;-77
2022/05/28 07:11:35;;;;;;;;;;;15.20;61.80;;;;;;5072683;28;19935;-75
2022/05/28 07:14:01;;;;;;;;;;;15.20;61.50;;;;;;5073683;28;19933;-75
2022/05/28 07:16:28;;;;;;;;;;;15.30;61.20;;;;;;5064855;28;19936;-74
2022/05/28 07:18:54;;;;;;;;;;;15.30;61.10;;;;;;5070735;28;20455;-75
2022/05/28 07:21:21;;;;;;;;;;;15.30;61.20;;;;;;5065495;28;19939;-76
2022/05/28 07:23:47;;;;;;;;;;;15.20;61.00;;;;;;5068623;28;19935;-76
2022/05/28 07:26:15;;;;;;;;;;;15.30;61.00;;;;;;5073418;28;19931;-75
2022/05/28 07:28:45;;;;;;;;;;;15.30;60.90;;;;;;5070359;28;20039;-74
2022/05/28 07:31:12;;;;;;;;;;;15.40;60.60;;;;;;5066246;28;20329;-73
2022/05/28 07:33:40;;;;;;;;;;;15.40;60.30;;;;;;5079412;28;20515;-68
2022/05/28 07:36:07;;;;;;;;;;;15.40;60.40;;;;;;5078774;28;20458;-71
2022/05/28 07:38:35;;;;;;;;;;;15.40;60.40;;;;;;5080610;28;19928;-66
2022/05/28 07:41:02;;;;;;;;;;;15.40;60.00;;;;;;5073049;28;19932;-69
2022/05/28 07:43:29;;;;;;;;;;;15.40;60.00;;;;;;5075819;28;20023;-70
2022/05/28 07:45:56;;;;;;;;;;;15.50;60.00;;;;;;5065750;28;19928;-70
2022/05/28 07:48:23;;;;;;;;;;;15.50;59.90;;;;;;5070218;28;19928;-71
2022/05/28 07:50:50;;;;;;;;;;;15.50;59.90;;;;;;5074662;28;20253;-68
2022/05/28 07:53:16;;;;;;;;;;;15.50;59.80;;;;;;5074022;28;19928;-73
2022/05/28 07:55:43;;;;;;;;;;;15.50;59.70;;;;;;5071607;28;19928;-69
2022/05/28 07:58:11;;;;;;;;;;;15.50;59.60;;;;;;5075955;28;19935;-69
2022/05/28 08:00:38;;;;;;;;;;;15.50;59.50;;;;;;5072013;28;19964;-68
2022/05/28 08:03:07;;;;;;;;;;;15.60;59.40;;;;;;5073733;28;19928;-70
2022/05/28 08:05:34;;;;;;;;;;;15.60;59.50;;;;;;5073896;28;19935;-70
2022/05/28 08:08:00;;;;;;;;;;;15.60;59.30;;;;;;5081178;28;19928;-73
2022/05/28 08:10:27;;;;;;;;;;;15.70;59.30;;;;;;5077668;28;19939;-69
2022/05/28 08:12:53;;;;;;;;;;;15.70;59.40;;;;;;5076159;28;19931;-68
2022/05/28 08:15:20;;;;;;;;;;;15.70;59.40;;;;;;5073676;28;19963;-68
2022/05/28 08:17:47;;;;;;;;;;;15.70;59.50;;;;;;5078262;28;19928;-73
2022/05/28 08:20:14;;;;;;;;;;;15.80;59.40;;;;;;5075228;28;19928;-72
2022/05/28 08:25:25;;;;;;;;;;;15.80;59.30;;;;;;5071083;28;20025;-69
2022/05/28 08:27:51;;;;;;;;;;;15.90;59.40;;;;;;5075026;28;19932;-72
2022/05/28 08:30:18;;;;;;;;;;;15.90;59.20;;;;;;5075087;28;19939;-69
2022/05/28 08:32:45;;;;;;;;;;;15.90;59.30;;;;;;5072386;28;19928;-70
2022/05/28 08:35:11;;;;;;;;;;;15.90;59.30;;;;;;5079544;28;19928;-71
2022/05/28 08:37:39;;;;;;;;;;;15.90;59.30;;;;;;5072688;28;19928;-73
2022/05/28 08:40:06;;;;;;;;;;;16.00;59.40;;;;;;5075412;28;19924;-69
2022/05/28 08:42:33;;;;;;;;;;;16.00;59.30;;;;;;5072566;28;20478;-68
2022/05/28 08:45:02;;;;;;;;;;;16.00;59.40;;;;;;5069489;28;19928;-73
2022/05/28 08:47:32;;;;;;;;;;;16.00;59.20;;;;;;5075517;28;19936;-69
2022/05/28 08:49:58;;;;;;;;;;;16.00;59.20;;;;;;5078307;28;19928;-71
2022/05/28 08:52:27;;;;;;;;;;;16.10;59.30;;;;;;5071569;28;19928;-69
2022/05/28 08:54:59;;;;;;;;;;;16.10;59.20;;;;;;5073135;28;20600;-72
2022/05/28 08:57:31;;;;;;;;;;;16.10;59.30;;;;;;5073217;28;20403;-68
2022/05/28 09:00:00;;;;;;;;;;;16.10;59.20;;;;;;5074223;28;19935;-70
2022/05/28 09:02:31;;;;;;;;;;;16.10;59.20;;;;;;5077440;28;20284;-69
2022/05/28 09:04:58;;;;;;;;;;;16.20;59.20;;;;;;5078747;28;19924;-69
2022/05/28 09:07:24;;;;;;;;;;;16.20;59.20;;;;;;5076006;28;19928;-69
2022/05/28 09:09:54;;;;;;;;;;;16.20;59.10;;;;;;5076592;28;19924;-73
2022/05/28 09:12:24;;;;;;;;;;;16.20;59.20;;;;;;5071415;28;19928;-71
2022/05/28 09:14:51;;;;;;;;;;;16.20;59.00;;;;;;5068533;28;20612;-73
2022/05/28 09:17:21;;;;;;;;;;;16.30;59.00;;;;;;5074106;28;19950;-66
2022/05/28 09:19:49;;;;;;;;;;;16.30;59.00;;;;;;5079276;28;19928;-67
2022/05/28 09:22:15;;;;;;;;;;;16.30;58.80;;;;;;5073534;28;20016;-68
2022/05/28 09:24:42;;;;;;;;;;;16.30;58.60;;;;;;5080812;28;19975;-68
2022/05/28 09:27:19;;;;;;;;;;;16.30;58.60;;;;;;5076620;28;20007;-72
2022/05/28 09:30:10;;;;;;;;;;;16.40;58.00;;;;;;5074516;28;20467;-72
2022/05/28 09:32:49;;;;;;;;;;;16.40;57.60;;;;;;5071625;28;21033;-70
2022/05/28 09:35:18;;;;;;;;;;;16.50;57.70;;;;;;5068932;28;20494;-72
2022/05/28 09:37:52;;;;;;;;;;;16.60;57.70;;;;;;5073049;28;19928;-69
2022/05/28 09:40:21;;;;;;;;;;;16.60;57.70;;;;;;5073226;28;19928;-68
2022/05/28 09:43:03;;;;;;;;;;;16.60;57.10;;;;;;5069862;28;20459;-70
2022/05/28 09:45:33;;;;;;;;;;;16.70;57.10;;;;;;5070255;28;19935;-72
2022/05/28 09:48:01;;;;;;;;;;;16.80;57.20;;;;;;5073772;28;20480;-71
2022/05/28 09:50:28;;;;;;;;;;;16.80;56.90;;;;;;5081541;28;20035;-71
2022/05/28 09:55:52;;;;;;;;;;;17.00;56.60;;;;;;5073470;28;20069;-71
2022/05/28 09:58:20;;;;;;;;;;;17.00;56.50;;;;;;5079158;28;20687;-68
2022/05/28 10:00:48;;;;;;;;;;;17.00;56.40;;;;;;5077254;28;19935;-71
2022/05/28 10:06:11;;;;;;;;;;;17.20;56.40;;;;;;5076425;28;20390;-68
2022/05/28 10:08:37;;;;;;;;;;;17.30;55.70;;;;;;5072063;28;19943;-72
2022/05/28 10:11:05;;;;;;;;;;;17.30;56.00;;;;;;5075122;28;19929;-70
2022/05/28 10:13:41;;;;;;;;;;;17.40;55.60;;;;;;5070649;28;19928;-72
2022/05/28 10:16:08;;;;;;;;;;;17.40;56.10;;;;;;5070865;28;19932;-70
2022/05/28 10:18:37;;;;;;;;;;;17.40;57.30;;;;;;5067231;28;19937;-73
2022/05/28 10:21:11;;;;;;;;;;;17.50;57.90;;;;;;5074852;28;20022;-71
2022/05/28 10:23:39;;;;;;;;;;;17.50;57.40;;;;;;5072217;28;19925;-69
2022/05/28 10:26:05;;;;;;;;;;;17.50;57.00;;;;;;5071312;28;20388;-72
2022/05/28 10:28:41;;;;;;;;;;;17.50;56.50;;;;;;5070108;28;19933;-71
2022/05/28 10:31:13;;;;;;;;;;;17.60;55.60;;;;;;5070364;28;19939;-70
2022/05/28 10:33:45;;;;;;;;;;;17.60;55.70;;;;;;5073590;28;19954;-70
2022/05/28 10:36:15;;;;;;;;;;;17.70;55.50;;;;;;5066873;28;19928;-68
2022/05/28 10:38:42;;;;;;;;;;;17.70;56.30;;;;;;5072824;28;19924;-70
2022/05/28 10:41:15;;;;;;;;;;;17.70;55.40;;;;;;5072461;28;19924;-67
2022/05/28 10:43:43;;;;;;;;;;;17.80;56.20;;;;;;5072230;28;21473;-67
2022/05/28 10:46:14;;;;;;;;;;;17.80;57.40;;;;;;5071119;28;20031;-72
2022/05/28 10:48:50;;;;;;;;;;;17.90;58.10;;;;;;5077891;28;20663;-72
2022/05/28 10:51:20;;;;;;;;;;;17.90;57.10;;;;;;5070624;28;19932;-73
2022/05/28 10:53:59;;;;;;;;;;;18.00;56.50;;;;;;5078349;28;19975;-70
2022/05/28 10:56:32;;;;;;;;;;;18.00;57.20;;;;;;5073237;28;19935;-72
2022/05/28 10:59:05;;;;;;;;;;;18.00;57.40;;;;;;5071532;28;19928;-72
2022/05/28 11:01:37;;;;;;;;;;;18.00;57.40;;;;;;5068640;28;20379;-73
2022/05/28 11:04:15;;;;;;;;;;;18.10;57.40;;;;;;5070213;28;19933;-73
2022/05/28 11:06:51;;;;;;;;;;;18.10;56.90;;;;;;5073562;28;19952;-75
2022/05/28 11:09:23;;;;;;;;;;;18.20;55.80;;;;;;5070386;28;20854;-73
2022/05/28 11:12:02;;;;;;;;;;;18.10;55.50;;;;;;5067093;28;20054;-72
2022/05/28 11:14:46;;;;;;;;;;;18.20;56.40;;;;;;5066190;28;19975;-72
2022/05/28 11:17:21;;;;;;;;;;;18.30;56.90;;;;;;5071510;28;19935;-74
2022/05/28 11:20:12;;;;;;;;;;;18.30;56.80;;;;;;5070819;28;20414;-71
2022/05/28 11:22:44;;;;;;;;;;;18.30;56.70;;;;;;5072197;28;20392;-70
2022/05/28 11:25:14;;;;;;;;;;;18.40;56.50;;;;;;5072724;28;19993;-75
2022/05/28 11:27:44;;;;;;;;;;;18.40;56.40;;;;;;5075613;28;19951;-70
2022/05/28 11:30:13;;;;;;;;;;;18.50;55.50;;;;;;5071699;28;20721;-74
2022/05/28 11:32:43;;;;;;;;;;;18.50;56.00;;;;;;5074568;28;19952;-73
2022/05/28 11:35:14;;;;;;;;;;;18.60;55.60;;;;;;5078397;28;19932;-71
2022/05/28 11:37:42;;;;;;;;;;;18.60;55.90;;;;;;5076032;28;19939;-76
2022/05/28 11:40:15;;;;;;;;;;;18.60;56.00;;;;;;5073716;28;20396;-78
2022/05/28 11:42:43;;;;;;;;;;;18.70;54.90;;;;;;5075768;28;19940;-75
2022/05/28 11:45:14;;;;;;;;;;;18.70;54.80;;;;;;5073023;28;20450;-73
2022/05/28 11:47:45;;;;;;;;;;;18.80;55.00;;;;;;5079792;28;19932;-68
2022/05/28 11:53:05;;;;;;;;;;;18.90;53.80;;;;;;5073484;28;19974;-67
2022/05/28 11:55:35;;;;;;;;;;;19.10;51.10;;;;;;5080920;28;19928;-70
2022/05/28 11:58:04;;;;;;;;;;;19.30;46.50;;;;;;5080526;28;20010;-70
2022/05/28 12:00:33;;;;;;;;;;;19.40;46.20;;;;;;5074024;27;19932;-67
2022/05/28 12:03:01;;;;;;;;;;;19.40;45.40;;;;;;5076559;28;19932;-69
2022/05/28 12:05:41;;;;;;;;;;;19.50;45.30;;;;;;5073085;28;20362;-70
2022/05/28 12:08:08;;;;;;;;;;;19.40;46.20;;;;;;5076828;28;19931;-67
2022/05/28 12:10:39;;;;;;;;;;;19.50;46.30;;;;;;5074904;28;20386;-69
2022/05/28 12:13:06;;;;;;;;;;;19.50;46.80;;;;;;5080398;28;19956;-69
2022/05/28 12:15:34;;;;;;;;;;;19.50;46.50;;;;;;5074417;28;19935;-69
2022/05/28 12:18:06;;;;;;;;;;;19.50;45.90;;;;;;5072018;28;19938;-69
2022/05/28 12:20:35;;;;;;;;;;;19.60;42.60;;;;;;5078284;28;19935;-68
2022/05/28 12:23:03;;;;;;;;;;;19.90;41.80;;;;;;5074342;28;20316;-71
2022/05/28 12:25:32;;;;;;;;;;;20.00;44.90;;;;;;5079746;28;20632;-71
2022/05/28 12:28:08;;;;;;;;;;;20.00;45.30;;;;;;5073292;28;20019;-70
2022/05/28 12:30:48;;;;;;;;;;;19.90;46.50;;;;;;5077874;28;19932;-70
2022/05/28 12:33:19;;;;;;;;;;;19.80;46.90;;;;;;5073483;28;19931;-70
2022/05/28 12:35:51;;;;;;;;;;;19.80;47.40;;;;;;5083927;28;19940;-72
2022/05/28 12:38:37;;;;;;;;;;;19.80;48.60;;;;;;5076416;28;19932;-72
2022/05/28 12:41:04;;;;;;;;;;;19.80;48.40;;;;;;5076972;28;19935;-69
2022/05/28 12:43:33;;;;;;;;;;;19.70;48.30;;;;;;5073998;28;19928;-70
2022/05/28 12:46:11;;;;;;;;;;;19.70;48.30;;;;;;5074507;28;19935;-69
2022/05/28 12:48:39;;;;;;;;;;;19.70;49.00;;;;;;5074621;28;20470;-69
2022/05/28 12:51:15;;;;;;;;;;;19.70;48.20;;;;;;5078135;28;19932;-68
2022/05/28 12:53:48;;;;;;;;;;;19.70;49.20;;;;;;5072980;28;20569;-72
2022/05/28 12:56:21;;;;;;;;;;;19.70;48.70;;;;;;5070305;28;19939;-71
2022/05/28 12:58:49;;;;;;;;;;;19.70;49.60;;;;;;5077064;28;19935;-71
2022/05/28 13:01:22;;;;;;;;;;;19.70;48.90;;;;;;5073689;28;19928;-71
2022/05/28 13:03:50;;;;;;;;;;;19.70;48.40;;;;;;5078930;28;20013;-67
2022/05/28 13:06:21;;;;;;;;;;;19.70;47.90;;;;;;5085238;28;20325;-76
2022/05/28 13:08:50;;;;;;;;;;;19.80;48.80;;;;;;5078955;28;19932;-71
2022/05/28 13:11:27;;;;;;;;;;;19.80;47.80;;;;;;5085098;28;20310;-75
2022/05/28 13:14:08;;;;;;;;;;;19.90;47.50;;;;;;5081718;28;19928;-68
2022/05/28 13:16:50;;;;;;;;;;;19.90;47.60;;;;;;5080346;28;19932;-73
2022/05/28 13:19:37;;;;;;;;;;;20.00;46.80;;;;;;5071314;28;19928;-74
2022/05/28 13:22:10;;;;;;;;;;;20.00;45.80;;;;;;5056239;28;19931;-70
2022/05/28 13:24:57;;;;;;;;;;;20.10;46.50;;;;;;5080128;28;20475;-71
2022/05/28 13:27:30;;;;;;;;;;;20.20;47.10;;;;;;5072303;28;19928;-75
2022/05/28 13:30:10;;;;;;;;;;;20.30;46.80;;;;;;5074691;28;19936;-68
2022/05/28 13:32:40;;;;;;;;;;;20.30;47.20;;;;;;5081274;28;19935;-66
2022/05/28 13:35:10;;;;;;;;;;;20.40;47.40;;;;;;5083505;28;19930;-66
2022/05/28 13:37:39;;;;;;;;;;;20.50;46.30;;;;;;5078456;28;21229;-67
2022/05/28 13:40:07;;;;;;;;;;;20.50;45.20;;;;;;5080966;28;19935;-69
2022/05/28 13:42:35;;;;;;;;;;;20.60;46.50;;;;;;5080562;28;19939;-70
2022/05/28 13:45:02;;;;;;;;;;;20.60;48.30;;;;;;5075222;28;19928;-68
2022/05/28 13:47:30;;;;;;;;;;;20.60;47.80;;;;;;5073867;28;19932;-70
2022/05/28 13:49:59;;;;;;;;;;;20.70;48.20;;;;;;5078466;28;19928;-67
2022/05/28 13:52:26;;;;;;;;;;;20.70;48.30;;;;;;5075623;28;20031;-71
2022/05/28 13:54:56;;;;;;;;;;;20.70;47.80;;;;;;5082540;28;19935;-67
2022/05/28 13:57:34;;;;;;;;;;;20.70;47.00;;;;;;5082417;28;20400;-71
2022/05/28 14:00:00;;;;;;;;;;;20.70;47.60;;;;;;5075900;28;19928;-70
2022/05/28 14:02:27;;;;;;;;;;;20.70;48.30;;;;;;5077887;28;19936;-66
2022/05/28 14:04:54;;;;;;;;;;;20.70;46.50;;;;;;5083988;28;19939;-72
2022/05/28 14:07:23;;;;;;;;;;;20.70;46.90;;;;;;5083140;28;19935;-69
2022/05/28 14:09:50;;;;;;;;;;;20.70;47.20;;;;;;5079614;28;19927;-73
2022/05/28 14:12:20;;;;;;;;;;;20.70;48.00;;;;;;5083544;28;19928;-71
2022/05/28 14:14:47;;;;;;;;;;;20.70;47.80;;;;;;5066314;28;19935;-72
2022/05/28 14:17:18;;;;;;;;;;;20.70;48.20;;;;;;5069039;28;19955;-68
2022/05/28 14:19:51;;;;;;;;;;;20.70;47.70;;;;;;5076134;28;19932;-72
2022/05/28 14:22:22;;;;;;;;;;;20.70;47.70;;;;;;5073863;28;20636;-70
2022/05/28 14:24:49;;;;;;;;;;;20.70;48.10;;;;;;5082451;28;19924;-69
2022/05/28 14:27:20;;;;;;;;;;;20.70;48.90;;;;;;5074744;28;19928;-70
2022/05/28 14:29:48;;;;;;;;;;;20.70;48.50;;;;;;5077237;28;19929;-72
2022/05/28 14:32:15;;;;;;;;;;;20.70;47.80;;;;;;5077074;28;19951;-70
2022/05/28 14:34:43;;;;;;;;;;;20.70;47.60;;;;;;5079313;28;19932;-66
2022/05/28 14:37:22;;;;;;;;;;;20.70;47.90;;;;;;5081202;28;20414;-69